createdAt,value
2022-12-03T04:01:40.178Z,12.97
2022-12-03T04:04:19.925Z,12.53
2022-12-03T04:06:48.113Z,12.90
2022-12-03T04:09:15.757Z,12.70
2022-12-03T04:12:01.560Z,13.10
2022-12-03T04:14:28.726Z,15.80
2022-12-03T04:16:56.048Z,13.60
2022-12-03T04:19:23.329Z,12.50
2022-12-03T04:22:09.233Z,12.90
2022-12-03T04:24:36.483Z,12.03
2022-12-03T04:27:22.444Z,12.13
2022-12-03T04:29:49.649Z,12.03
2022-12-03T04:32:35.554Z,12.17
2022-12-03T04:35:21.642Z,11.80
2022-12-03T04:37:48.909Z,12.87
2022-12-03T04:40:34.901Z,12.63
2022-12-03T04:43:02.074Z,11.70
2022-12-03T04:45:29.315Z,12.13
2022-12-03T04:47:56.541Z,12.20
2022-12-03T04:50:23.755Z,13.20
2022-12-03T04:52:50.983Z,13.10
2022-12-03T04:55:18.213Z,11.93
2022-12-03T04:57:45.507Z,11.23
2022-12-03T05:00:13.484Z,12.70
2022-12-03T05:02:40.740Z,12.03
2022-12-03T05:05:08.452Z,12.37
2022-12-03T05:07:35.772Z,11.83
2022-12-03T05:10:03.605Z,12.30
2022-12-03T05:12:30.816Z,12.10
2022-12-03T05:14:58.081Z,12.67
2022-12-03T05:17:25.286Z,11.97
2022-12-03T05:20:11.339Z,12.03
2022-12-03T05:22:38.595Z,11.97
2022-12-03T05:25:06.375Z,12.57
2022-12-03T05:27:33.617Z,12.70
2022-12-03T05:30:00.945Z,12.53
2022-12-03T05:32:28.192Z,13.37
2022-12-03T05:34:55.684Z,12.07
2022-12-03T05:37:23.107Z,13.00
2022-12-03T05:39:50.295Z,13.73
2022-12-03T05:42:36.285Z,13.90
2022-12-03T05:45:03.786Z,13.00
2022-12-03T05:47:30.985Z,13.57
2022-12-03T05:49:58.169Z,13.53
2022-12-03T05:52:25.421Z,12.77
2022-12-03T05:54:52.946Z,13.13
2022-12-03T05:57:20.363Z,12.73
2022-12-03T05:59:47.680Z,14.73
2022-12-03T06:02:14.938Z,12.97
2022-12-03T06:04:42.153Z,13.60
2022-12-03T06:07:13.763Z,12.00
2022-12-03T06:09:41.373Z,13.30
2022-12-03T06:12:11.658Z,12.80
2022-12-03T06:14:38.910Z,15.53
2022-12-03T06:17:06.119Z,14.73
2022-12-03T06:19:33.861Z,12.43
2022-12-03T06:22:01.150Z,15.20
2022-12-03T06:24:28.540Z,13.97
2022-12-03T06:26:55.770Z,13.07
2022-12-03T06:29:23.043Z,12.73
2022-12-03T06:31:50.294Z,12.17
2022-12-03T06:34:17.519Z,11.83
2022-12-03T06:36:46.796Z,12.70
2022-12-03T06:39:14.030Z,13.37
2022-12-03T06:41:41.222Z,13.63
2022-12-03T06:44:08.470Z,13.80
2022-12-03T06:46:35.800Z,12.83
2022-12-03T06:49:03.497Z,13.63
2022-12-03T06:51:30.885Z,12.57
2022-12-03T06:53:58.080Z,12.67
2022-12-03T06:56:29.676Z,14.50
2022-12-03T06:59:00.141Z,12.10
2022-12-03T07:01:27.428Z,11.47
2022-12-03T07:03:54.635Z,12.00
2022-12-03T07:06:21.866Z,12.50
2022-12-03T07:08:49.058Z,13.27
2022-12-03T07:11:31.236Z,12.47
2022-12-03T07:14:05.036Z,12.90
2022-12-03T07:16:32.867Z,13.40
2022-12-03T07:19:00.310Z,13.07
2022-12-03T07:21:27.595Z,12.40
2022-12-03T07:23:54.845Z,13.60
2022-12-03T07:26:22.133Z,13.03
2022-12-03T07:28:49.443Z,13.50
2022-12-03T07:31:17.183Z,12.43
2022-12-03T07:33:44.462Z,13.13
2022-12-03T07:36:11.730Z,14.77
2022-12-03T07:38:39.001Z,16.57
2022-12-03T07:41:06.376Z,15.60
2022-12-03T07:43:33.590Z,15.17
2022-12-03T07:46:00.832Z,13.90
2022-12-03T07:48:28.092Z,14.47
2022-12-03T07:50:55.310Z,13.97
2022-12-03T07:53:22.554Z,15.27
2022-12-03T07:55:49.770Z,13.77
2022-12-03T07:58:16.986Z,15.50
2022-12-03T08:00:44.259Z,17.50
2022-12-03T08:03:11.621Z,16.40
2022-12-03T08:05:38.841Z,17.57
2022-12-03T08:08:06.589Z,15.37
2022-12-03T08:10:33.974Z,14.63
2022-12-03T08:13:02.659Z,17.10
2022-12-03T08:15:35.377Z,15.23
2022-12-03T08:18:21.058Z,15.17
2022-12-03T08:20:50.682Z,15.80
2022-12-03T08:23:22.990Z,16.30
2022-12-03T08:25:51.344Z,15.10
2022-12-03T08:28:22.661Z,15.90
2022-12-03T08:31:19.873Z,15.27
2022-12-03T08:33:49.372Z,12.93
2022-12-03T08:36:23.341Z,12.70
2022-12-03T08:38:56.852Z,12.60
2022-12-03T08:41:43.156Z,13.23
2022-12-03T08:44:32.512Z,15.47
2022-12-03T08:47:22.403Z,13.60
2022-12-03T08:49:58.140Z,15.20
2022-12-03T08:52:33.339Z,14.70
2022-12-03T08:55:13.506Z,15.90
2022-12-03T08:57:43.389Z,13.30
2022-12-03T09:00:10.552Z,14.20
2022-12-03T09:02:37.785Z,14.57
2022-12-03T09:05:19.711Z,13.30
2022-12-03T09:07:47.042Z,13.77
2022-12-03T09:10:14.532Z,13.43
2022-12-03T09:12:41.819Z,12.47
2022-12-03T09:15:09.367Z,11.97
2022-12-03T09:17:36.816Z,12.87
2022-12-03T09:20:05.340Z,12.50
2022-12-03T09:22:32.582Z,12.57
2022-12-03T09:24:59.842Z,14.27
2022-12-03T09:27:27.066Z,12.90
2022-12-03T09:29:54.258Z,14.10
2022-12-03T09:32:21.699Z,12.70
2022-12-03T09:34:49.084Z,14.33
2022-12-03T09:37:16.552Z,24.93
2022-12-03T09:39:43.775Z,20.07
2022-12-03T09:42:11.571Z,38.27
2022-12-03T09:44:39.100Z,16.53
2022-12-03T09:47:06.931Z,16.57
2022-12-03T09:49:36.956Z,32.20
2022-12-03T09:52:05.737Z,16.97
2022-12-03T09:54:34.359Z,47.37
2022-12-03T09:57:03.617Z,17.10
2022-12-03T09:59:33.352Z,19.77
2022-12-03T10:02:01.548Z,23.83
2022-12-03T10:04:29.686Z,15.97
2022-12-03T10:06:58.421Z,13.17
2022-12-03T10:09:28.105Z,12.87
2022-12-03T10:11:59.793Z,13.13
2022-12-03T10:14:28.113Z,13.63
2022-12-03T10:16:55.838Z,14.50
2022-12-03T10:19:29.144Z,19.97
2022-12-03T10:21:56.351Z,15.60
2022-12-03T10:24:31.765Z,13.60
2022-12-03T10:27:01.942Z,13.57
2022-12-03T10:29:35.126Z,14.80
2022-12-03T10:32:08.557Z,13.20
2022-12-03T10:34:41.573Z,13.27
2022-12-03T10:37:10.062Z,12.63
2022-12-03T10:39:57.732Z,13.33
2022-12-03T10:42:31.442Z,12.03
2022-12-03T10:45:23.473Z,14.87
2022-12-03T10:48:12.362Z,14.10
2022-12-03T10:50:52.888Z,13.37
2022-12-03T10:53:22.777Z,15.87
2022-12-03T10:55:51.975Z,12.33
2022-12-03T10:58:25.308Z,16.67
2022-12-03T11:00:54.953Z,15.40
2022-12-03T11:03:30.623Z,15.27
2022-12-03T11:06:00.208Z,26.20
2022-12-03T11:08:31.279Z,25.27
2022-12-03T11:11:06.301Z,16.60
2022-12-03T11:13:33.434Z,12.77
2022-12-03T11:16:02.835Z,12.50
2022-12-03T11:18:36.120Z,13.13
2022-12-03T11:21:07.752Z,12.23
2022-12-03T11:23:46.836Z,11.73
2022-12-03T11:26:28.978Z,12.70
2022-12-03T11:28:57.873Z,12.40
2022-12-03T11:31:44.427Z,12.77
2022-12-03T11:34:20.793Z,12.50
2022-12-03T11:37:09.794Z,12.23
2022-12-03T11:39:52.962Z,12.63
2022-12-03T11:42:26.138Z,13.10
2022-12-03T11:45:05.384Z,11.77
2022-12-03T11:47:39.879Z,13.33
2022-12-03T11:50:33.577Z,13.23
2022-12-03T11:53:07.740Z,12.77
2022-12-03T11:55:38.695Z,13.50
2022-12-03T11:58:27.643Z,13.20
2022-12-03T12:00:57.385Z,13.33
2022-12-03T12:03:32.870Z,12.87
2022-12-03T12:06:06.868Z,13.17
2022-12-03T12:08:39.679Z,13.63
2022-12-03T12:11:17.895Z,12.37
2022-12-03T12:13:45.129Z,11.60
2022-12-03T12:16:12.577Z,11.77
2022-12-03T12:18:52.332Z,12.50
2022-12-03T12:21:42.151Z,12.23
2022-12-03T12:24:32.590Z,14.50
2022-12-03T12:27:08.472Z,13.83
2022-12-03T12:29:37.345Z,13.80
2022-12-03T12:32:10.789Z,12.63
2022-12-03T12:34:39.286Z,13.17
2022-12-03T12:37:12.520Z,13.47
2022-12-03T12:39:40.603Z,14.90
2022-12-03T12:42:30.063Z,13.47
2022-12-03T12:45:20.333Z,12.87
2022-12-03T12:47:49.841Z,13.30
2022-12-03T12:50:19.081Z,13.67
2022-12-03T12:52:54.732Z,13.27
2022-12-03T12:55:23.723Z,12.80
2022-12-03T12:57:51.637Z,14.10
2022-12-03T13:00:22.184Z,13.50
2022-12-03T13:02:53.637Z,13.87
2022-12-03T13:05:20.964Z,15.50
2022-12-03T13:07:48.304Z,13.93
2022-12-03T13:10:42.490Z,15.07
2022-12-03T13:13:23.404Z,13.80
2022-12-03T13:16:16.219Z,15.03
2022-12-03T13:18:45.343Z,14.87
2022-12-03T13:21:22.095Z,13.70
2022-12-03T13:23:52.666Z,14.77
2022-12-03T13:26:38.586Z,14.30
2022-12-03T13:29:18.466Z,15.63
2022-12-03T13:32:08.025Z,16.63
2022-12-03T13:34:35.450Z,14.60
2022-12-03T13:37:06.844Z,17.37
2022-12-03T13:39:38.643Z,19.70
2022-12-03T13:42:33.382Z,17.37
2022-12-03T13:45:02.373Z,15.13
2022-12-03T13:47:29.570Z,15.00
2022-12-03T13:50:07.300Z,16.20
2022-12-03T13:52:35.063Z,15.93
2022-12-03T13:55:03.930Z,16.80
2022-12-03T13:57:31.137Z,17.57
2022-12-03T13:59:58.329Z,22.43
2022-12-03T14:02:25.925Z,20.20
2022-12-03T14:04:58.452Z,15.33
2022-12-03T14:07:27.526Z,17.63
2022-12-03T14:09:54.998Z,14.37
2022-12-03T14:12:33.607Z,19.87
2022-12-03T14:15:02.196Z,15.03
2022-12-03T14:17:31.023Z,22.27
2022-12-03T14:20:01.380Z,16.30
2022-12-03T14:22:29.381Z,22.63
2022-12-03T14:24:57.110Z,16.40
2022-12-03T14:27:24.867Z,15.70
2022-12-03T14:29:52.750Z,15.27
2022-12-03T14:32:20.231Z,14.47
2022-12-03T14:34:47.410Z,15.77
2022-12-03T14:37:15.254Z,14.37
2022-12-03T14:39:42.516Z,15.93
2022-12-03T14:42:16.740Z,16.00
2022-12-03T14:44:51.163Z,15.63
2022-12-03T14:47:22.293Z,15.40
2022-12-03T14:49:50.505Z,16.33
2022-12-03T14:52:18.590Z,16.30
2022-12-03T14:54:45.901Z,18.80
2022-12-03T14:57:14.640Z,16.47
2022-12-03T14:59:42.984Z,17.90
2022-12-03T15:02:11.872Z,16.53
2022-12-03T15:04:40.568Z,15.93
2022-12-03T15:07:08.068Z,15.17
2022-12-03T15:09:35.456Z,15.57
2022-12-03T15:12:03.116Z,18.67
2022-12-03T15:14:30.318Z,18.60
2022-12-03T15:16:57.760Z,19.20
2022-12-03T15:19:25.105Z,17.43
2022-12-03T15:21:52.333Z,15.67
2022-12-03T15:24:19.551Z,15.60
2022-12-03T15:26:46.708Z,16.30
2022-12-03T15:29:14.015Z,17.43
2022-12-03T15:31:41.378Z,18.57
2022-12-03T15:34:08.694Z,18.13
2022-12-03T15:36:36.010Z,19.33
2022-12-03T15:39:03.914Z,18.13
2022-12-03T15:41:31.414Z,17.67
2022-12-03T15:44:03.632Z,17.73
2022-12-03T15:46:33.924Z,18.93
2022-12-03T15:49:01.268Z,19.70
2022-12-03T15:51:28.563Z,23.43
2022-12-03T15:53:55.799Z,26.47
2022-12-03T15:56:23.017Z,21.67
2022-12-03T15:58:50.235Z,23.00
2022-12-03T16:01:18.304Z,22.90
2022-12-03T16:03:45.939Z,19.97
2022-12-03T16:06:14.699Z,17.10
2022-12-03T16:08:42.029Z,18.37
2022-12-03T16:11:09.195Z,23.07
2022-12-03T16:13:36.498Z,18.73
2022-12-03T16:16:03.877Z,18.70
2022-12-03T16:18:32.136Z,18.63
2022-12-03T16:20:59.359Z,19.33
2022-12-03T16:23:26.633Z,19.93
2022-12-03T16:25:53.909Z,19.43
2022-12-03T16:28:21.116Z,18.57
2022-12-03T16:30:48.442Z,19.70
2022-12-03T16:33:15.767Z,18.40
2022-12-03T16:35:42.999Z,17.30
2022-12-03T16:38:10.267Z,19.43
2022-12-03T16:40:37.537Z,18.57
2022-12-03T16:43:04.954Z,18.57
2022-12-03T16:45:51.091Z,17.27
2022-12-03T16:48:18.962Z,19.30
2022-12-03T16:50:46.207Z,22.27
2022-12-03T16:53:14.556Z,21.40
2022-12-03T16:55:41.843Z,25.17
2022-12-03T16:58:09.043Z,24.63
2022-12-03T17:00:36.483Z,20.60
2022-12-03T17:03:03.881Z,20.97
2022-12-03T17:05:31.402Z,20.97
2022-12-03T17:07:58.688Z,20.63
2022-12-03T17:10:26.203Z,23.20
2022-12-03T17:13:10.068Z,20.97
2022-12-03T17:15:38.730Z,22.63
2022-12-03T17:18:06.969Z,20.60
2022-12-03T17:20:34.655Z,23.70
2022-12-03T17:23:02.148Z,23.53
2022-12-03T17:25:30.120Z,18.90
2022-12-03T17:27:57.368Z,19.93
2022-12-03T17:30:24.675Z,21.93
2022-12-03T17:32:51.965Z,21.07
2022-12-03T17:35:19.523Z,21.50
2022-12-03T17:37:46.887Z,21.60
2022-12-03T17:40:16.934Z,20.47
2022-12-03T17:42:44.179Z,20.87
2022-12-03T17:45:12.575Z,20.10
2022-12-03T17:47:39.896Z,20.70
2022-12-03T17:50:08.088Z,20.57
2022-12-03T17:52:35.386Z,19.40
2022-12-03T17:55:11.866Z,20.20
2022-12-03T17:57:41.642Z,19.27
2022-12-03T18:00:09.461Z,18.80
2022-12-03T18:02:36.713Z,21.03
2022-12-03T18:05:04.110Z,19.37
2022-12-03T18:07:31.431Z,18.33
2022-12-03T18:09:58.732Z,19.53
2022-12-03T18:12:26.140Z,19.53
2022-12-03T18:14:53.416Z,20.30
2022-12-03T18:17:20.788Z,20.07
2022-12-03T18:19:48.443Z,19.60
2022-12-03T18:22:15.926Z,19.80
2022-12-03T18:24:46.131Z,20.13
2022-12-03T18:27:14.792Z,20.73
2022-12-03T18:29:42.439Z,20.30
2022-12-03T18:32:27.037Z,18.67
2022-12-03T18:34:56.458Z,19.37
2022-12-03T18:37:27.453Z,18.67
2022-12-03T18:39:56.331Z,19.77
2022-12-03T18:42:24.620Z,19.03
2022-12-03T18:44:53.925Z,19.90
2022-12-03T18:47:24.404Z,21.37
2022-12-03T18:49:51.995Z,21.27
2022-12-03T18:52:22.007Z,20.40
2022-12-03T18:54:49.734Z,22.87
2022-12-03T18:57:17.017Z,25.63
2022-12-03T18:59:44.362Z,17.60
2022-12-03T19:02:38.633Z,22.97
2022-12-03T19:05:04.986Z,23.33
2022-12-03T19:07:32.359Z,17.97
2022-12-03T19:09:59.653Z,19.30
2022-12-03T19:12:26.979Z,18.10
2022-12-03T19:14:54.290Z,17.43
2022-12-03T19:17:21.767Z,18.73
2022-12-03T19:19:49.108Z,19.40
2022-12-03T19:22:16.456Z,19.57
2022-12-03T19:24:44.147Z,19.83
2022-12-03T19:27:11.545Z,20.53
2022-12-03T19:29:39.045Z,22.60
2022-12-03T19:32:06.482Z,22.23
2022-12-03T19:34:33.827Z,21.77
2022-12-03T19:37:01.099Z,22.10
2022-12-03T19:39:28.360Z,19.47
2022-12-03T19:41:55.737Z,23.17
2022-12-03T19:44:23.519Z,21.47
2022-12-03T19:46:50.986Z,23.40
2022-12-03T19:49:20.961Z,19.07
2022-12-03T19:51:48.660Z,20.43
2022-12-03T19:54:16.669Z,22.17
2022-12-03T19:56:44.410Z,21.30
2022-12-03T19:59:12.743Z,20.83
2022-12-03T20:01:40.915Z,21.37
2022-12-03T20:04:08.557Z,18.50
2022-12-03T20:06:38.961Z,19.83
2022-12-03T20:09:12.683Z,19.80
2022-12-03T20:11:41.552Z,21.43
2022-12-03T20:14:16.543Z,20.80
2022-12-03T20:16:44.962Z,18.93
2022-12-03T20:19:14.376Z,19.87
2022-12-03T20:21:42.799Z,20.90
2022-12-03T20:24:15.960Z,21.33
2022-12-03T20:26:43.967Z,20.23
2022-12-03T20:29:12.006Z,18.07
2022-12-03T20:31:39.582Z,19.13
2022-12-03T20:34:07.188Z,18.17
2022-12-03T20:36:34.503Z,20.30
2022-12-03T20:39:06.262Z,19.17
2022-12-03T20:41:36.426Z,19.33
2022-12-03T20:44:06.064Z,21.57
2022-12-03T20:46:33.503Z,19.73
2022-12-03T20:49:00.938Z,20.77
2022-12-03T20:51:30.192Z,20.27
2022-12-03T20:53:58.658Z,20.03
2022-12-03T20:56:29.277Z,19.40
2022-12-03T20:58:56.510Z,17.50
2022-12-03T21:01:26.587Z,18.27
2022-12-03T21:03:55.964Z,18.00
2022-12-03T21:06:25.682Z,19.23
2022-12-03T21:08:54.430Z,21.37
2022-12-03T21:11:25.044Z,21.00
2022-12-03T21:13:53.678Z,19.60
2022-12-03T21:16:45.591Z,18.37
2022-12-03T21:19:12.192Z,17.60
2022-12-03T21:21:39.451Z,18.27
2022-12-03T21:24:06.981Z,18.23
2022-12-03T21:26:34.201Z,17.53
2022-12-03T21:29:01.450Z,19.20
2022-12-03T21:31:30.298Z,19.30
2022-12-03T21:33:58.000Z,17.17
2022-12-03T21:36:25.758Z,18.70
2022-12-03T21:38:53.041Z,19.03
2022-12-03T21:41:20.286Z,18.57
2022-12-03T21:43:47.487Z,18.93
2022-12-03T21:47:08.321Z,20.70
2022-12-03T21:49:04.346Z,17.47
2022-12-03T21:51:31.574Z,17.37
2022-12-03T21:53:58.787Z,16.77
2022-12-03T21:56:26.050Z,16.03
2022-12-03T21:58:53.254Z,14.93
